Time;durP1;ratioP1;P1;durP2;ratioP2;P2;SDS_P1;SDS_P2;PMS_P1;PMS_P2;Temp;Humidity;BMP_temperature;BMP_pressure;BME280_temperature;BME280_humidity;BME280_pressure;Samples;Min_cycle;Max_cycle;Signal;HPM_P1;HPM_P2
2022/12/21 00:00:16;;;;;;;43.47;36.38;;;;;;;8.83;100.00;100950.47;5046256;28;20037;-64
2022/12/21 00:02:42;;;;;;;41.75;35.95;;;;;;;8.83;100.00;100942.50;5050146;28;20036;-64
2022/12/21 00:05:08;;;;;;;43.45;35.95;;;;;;;8.79;100.00;100923.22;5033699;28;20032;-64
2022/12/21 00:07:39;;;;;;;40.13;34.95;;;;;;;8.77;100.00;100941.03;5052660;28;20052;-63
2022/12/21 00:10:05;;;;;;;38.42;33.45;;;;;;;8.79;100.00;100940.94;5049398;28;20025;-64
2022/12/21 00:12:31;;;;;;;43.38;35.30;;;;;;;8.77;100.00;100937.53;5049574;28;20048;-64
2022/12/21 00:14:56;;;;;;;38.30;31.95;;;;;;;8.78;100.00;100932.13;5051262;28;20029;-63
2022/12/21 00:17:22;;;;;;;40.85;33.38;;;;;;;8.75;100.00;100940.25;5033150;28;20041;-63
2022/12/21 00:19:47;;;;;;;41.58;34.53;;;;;;;8.78;100.00;100937.44;5051271;28;20071;-64
2022/12/21 00:22:13;;;;;;;41.72;35.15;;;;;;;8.78;100.00;100939.25;5051476;28;20053;-64
2022/12/21 00:24:42;;;;;;;43.38;35.13;;;;;;;8.77;100.00;100943.69;5050957;28;20100;-64
2022/12/21 00:27:07;;;;;;;47.58;37.50;;;;;;;8.80;100.00;100938.22;5051329;28;20090;-63
2022/12/21 00:29:35;;;;;;;42.67;35.67;;;;;;;8.80;100.00;100945.31;5049558;28;20036;-64
2022/12/21 00:32:01;;;;;;;45.60;36.63;;;;;;;8.78;100.00;100936.59;5051311;28;20064;-64
2022/12/21 00:34:26;;;;;;;42.60;34.42;;;;;;;8.72;100.00;100943.06;5049920;28;20112;-64
2022/12/21 00:36:51;;;;;;;47.13;38.35;;;;;;;8.70;100.00;100944.09;5049925;28;20507;-64
2022/12/21 00:39:17;;;;;;;49.90;39.67;;;;;;;8.70;100.00;100929.03;5053491;28;20104;-64
2022/12/21 00:41:45;;;;;;;45.88;37.80;;;;;;;8.66;100.00;100946.06;5055515;28;20052;-64
2022/12/21 00:44:11;;;;;;;49.47;39.47;;;;;;;8.72;100.00;100942.22;5053629;28;20079;-63
2022/12/21 00:46:37;;;;;;;48.25;38.67;;;;;;;8.71;100.00;100948.47;5036921;28;20103;-64
2022/12/21 00:49:05;;;;;;;53.47;40.35;;;;;;;8.69;100.00;100939.75;5055074;28;20037;-62
2022/12/21 00:51:34;;;;;;;53.53;40.38;;;;;;;8.65;100.00;100936.41;5055262;28;20100;-64
2022/12/21 00:54:00;;;;;;;57.38;40.78;;;;;;;8.67;100.00;100939.81;5053407;28;20399;-64
2022/12/21 00:56:28;;;;;;;51.53;40.97;;;;;;;8.72;100.00;100936.91;5036598;28;20634;-64
2022/12/21 00:58:54;;;;;;;58.55;42.80;;;;;;;8.72;100.00;100951.03;5055122;28;20468;-64
2022/12/21 01:01:28;;;;;;;65.10;44.10;;;;;;;8.72;100.00;100950.19;5053250;28;20031;-64
2022/12/21 01:03:55;;;;;;;52.95;42.63;;;;;;;8.72;100.00;100953.69;5053577;28;20090;-63
2022/12/21 01:06:33;;;;;;;52.13;40.45;;;;;;;8.68;100.00;100960.09;5054320;28;20031;-64
2022/12/21 01:08:59;;;;;;;51.25;40.05;;;;;;;8.66;100.00;100956.66;5054113;28;20037;-64
2022/12/21 01:11:27;;;;;;;49.65;40.35;;;;;;;8.59;100.00;100950.84;5054659;28;20506;-64
2022/12/21 01:13:54;;;;;;;49.83;39.83;;;;;;;8.67;100.00;100965.47;5054328;28;20021;-62
2022/12/21 01:16:22;;;;;;;45.97;35.53;;;;;;;8.60;100.00;100975.56;5053353;28;20029;-64
2022/12/21 01:18:48;;;;;;;45.10;35.10;;;;;;;8.68;100.00;100969.81;5054592;28;20043;-63
2022/12/21 01:21:22;;;;;;;42.47;35.28;;;;;;;8.61;100.00;100961.34;5053438;28;20132;-63
2022/12/21 01:23:48;;;;;;;57.00;43.13;;;;;;;8.67;100.00;100961.00;5053981;28;20051;-63
2022/12/21 01:26:14;;;;;;;57.20;43.05;;;;;;;8.72;100.00;100964.28;5054056;28;20021;-64
2022/12/21 01:28:40;;;;;;;62.25;44.10;;;;;;;8.68;100.00;100964.53;5054665;28;20021;-64
2022/12/21 01:31:08;;;;;;;55.95;42.88;;;;;;;8.62;100.00;100950.69;5053088;28;20370;-64
2022/12/21 01:33:34;;;;;;;51.08;40.35;;;;;;;8.67;100.00;100974.28;5053242;28;20025;-63
2022/12/21 01:36:09;;;;;;;59.05;44.50;;;;;;;8.70;100.00;100976.75;5053885;28;20498;-63
2022/12/21 01:38:38;;;;;;;62.55;44.20;;;;;;;8.62;100.00;100973.69;5053764;28;20033;-64
2022/12/21 01:41:06;;;;;;;59.40;43.75;;;;;;;8.65;100.00;100978.81;5053742;28;20059;-63
2022/12/21 01:43:48;;;;;;;58.33;44.78;;;;;;;8.68;100.00;100988.38;5051955;28;20025;-64
2022/12/21 01:46:43;;;;;;;55.63;42.45;;;;;;;8.65;100.00;100981.47;5056187;28;20047;-64
2022/12/21 01:49:25;;;;;;;53.03;39.95;;;;;;;8.58;100.00;100982.72;5062807;28;20434;-62
2022/12/21 01:51:58;;;;;;;58.30;42.97;;;;;;;8.54;100.00;100978.53;5052547;28;20365;-64
2022/12/21 01:54:33;;;;;;;55.10;43.05;;;;;;;8.59;100.00;100985.31;5051779;28;20025;-63
2022/12/21 01:57:04;;;;;;;56.17;42.83;;;;;;;8.57;100.00;100981.03;5034019;28;20037;-64
2022/12/21 01:59:43;;;;;;;49.38;38.60;;;;;;;8.54;100.00;100974.06;5051076;28;20326;-64
2022/12/21 02:02:17;;;;;;;56.43;39.07;;;;;;;8.49;100.00;100964.66;5051531;28;20468;-64
2022/12/21 02:04:46;;;;;;;55.25;42.08;;;;;;;8.54;100.00;100968.78;5053753;28;20036;-64
2022/12/21 02:07:11;;;;;;;52.92;41.75;;;;;;;8.55;100.00;100959.88;5052492;28;20121;-64
2022/12/21 02:09:38;;;;;;;55.35;41.60;;;;;;;8.53;100.00;100968.84;5052614;28;20108;-64
2022/12/21 02:12:07;;;;;;;58.20;42.88;;;;;;;8.57;100.00;100968.63;5053274;28;20104;-62
2022/12/21 02:14:37;;;;;;;60.92;43.78;;;;;;;8.58;100.00;100967.66;5053627;28;20072;-64
2022/12/21 02:17:18;;;;;;;43.63;36.35;;;;;;;8.55;100.00;100974.94;5053820;28;20386;-64
2022/12/21 02:19:46;;;;;;;62.80;45.08;;;;;;;8.57;100.00;100973.06;5038774;28;20427;-64
2022/12/21 02:22:18;;;;;;;60.40;43.13;;;;;;;8.55;100.00;100973.13;5052901;28;20072;-64
2022/12/21 02:24:46;;;;;;;50.70;39.67;;;;;;;8.48;100.00;100966.44;5052563;28;20037;-63
2022/12/21 02:28:05;;;;;;;51.05;38.03;;;;;;;8.57;100.00;100967.75;5052191;28;20027;-64
2022/12/21 02:30:52;;;;;;;52.05;41.58;;;;;;;8.57;100.00;100973.06;5011459;28;20029;-62
2022/12/21 02:33:50;;;;;;;51.22;38.78;;;;;;;8.56;100.00;100966.03;5052926;28;20032;-64
2022/12/21 02:36:43;;;;;;;62.10;35.80;;;;;;;8.46;100.00;100957.72;5036586;28;20044;-64
2022/12/21 02:39:23;;;;;;;54.70;39.35;;;;;;;8.52;100.00;100969.78;5052338;28;20079;-62
2022/12/21 02:41:58;;;;;;;;;;;;;;;8.62;100.00;100968.38;5052355;28;20396;-64
2022/12/21 02:44:43;;;;;;;53.40;41.70;;;;;;;8.49;100.00;100968.16;5052818;28;19955;-63
2022/12/21 02:47:22;;;;;;;56.63;43.17;;;;;;;8.52;100.00;100961.84;5051575;28;20033;-64
2022/12/21 02:49:48;;;;;;;67.60;47.83;;;;;;;8.52;100.00;100952.09;5052821;28;20108;-64
2022/12/21 02:52:42;;;;;;;64.03;46.30;;;;;;;8.50;100.00;100956.63;5051167;28;20119;-62
2022/12/21 02:55:14;;;;;;;63.47;46.50;;;;;;;8.50;100.00;100953.09;5051943;28;20013;-64
2022/12/21 02:57:44;;;;;;;65.93;46.67;;;;;;;8.45;100.00;100950.72;5052772;28;20430;-64
2022/12/21 03:00:13;;;;;;;60.78;46.38;;;;;;;8.52;100.00;100956.53;5051100;28;20029;-62
2022/12/21 03:02:48;;;;;;;62.00;47.08;;;;;;;8.50;100.00;100961.06;5052039;28;20804;-64
2022/12/21 03:05:39;;;;;;;67.47;49.28;;;;;;;8.53;100.00;100958.25;5049907;28;20020;-62
2022/12/21 03:08:17;;;;;;;66.13;47.90;;;;;;;8.49;100.00;100967.31;5051282;28;20139;-63
2022/12/21 03:10:53;;;;;;;64.40;47.20;;;;;;;8.49;100.00;100956.69;5052881;28;20519;-64
2022/12/21 03:13:25;;;;;;;66.00;46.78;;;;;;;8.47;100.00;100948.84;5052425;28;20140;-62
2022/12/21 03:16:07;;;;;;;66.95;48.20;;;;;;;8.45;100.00;100950.72;5052197;28;20064;-64
2022/12/21 03:18:53;;;;;;;71.40;49.15;;;;;;;8.45;100.00;100944.56;5053599;28;20111;-63
2022/12/21 03:21:51;;;;;;;68.55;47.88;;;;;;;8.47;100.00;100946.19;5052426;28;20090;-64
2022/12/21 03:24:29;;;;;;;65.28;47.97;;;;;;;8.45;100.00;100947.22;5048703;28;20121;-64
2022/12/21 03:27:06;;;;;;;63.75;43.97;;;;;;;8.43;100.00;100951.72;5051553;28;20033;-64
2022/12/21 03:29:38;;;;;;;61.22;46.63;;;;;;;8.40;100.00;100945.63;5059772;28;20058;-62
2022/12/21 03:32:13;;;;;;;65.70;46.72;;;;;;;8.46;100.00;100931.22;5045530;28;20525;-62
2022/12/21 03:34:46;;;;;;;67.50;47.75;;;;;;;8.38;100.00;100931.63;5066503;28;20040;-62
2022/12/21 03:37:26;;;;;;;66.97;45.85;;;;;;;8.40;100.00;100948.28;5063200;28;20035;-64
2022/12/21 03:39:57;;;;;;;67.07;48.63;;;;;;;8.38;100.00;100944.88;5050891;28;20033;-64
2022/12/21 03:42:36;;;;;;;65.25;46.05;;;;;;;8.40;100.00;100955.38;5061338;28;20095;-64
2022/12/21 03:45:09;;;;;;;67.72;47.63;;;;;;;8.37;100.00;100950.22;5065154;28;20100;-64
2022/12/21 03:47:52;;;;;;;64.07;47.05;;;;;;;8.39;100.00;100946.59;5051817;28;20052;-64
2022/12/21 03:50:26;;;;;;;68.47;47.60;;;;;;;8.37;100.00;100945.75;5058718;28;20037;-64
2022/12/21 03:53:08;;;;;;;70.03;49.05;;;;;;;8.38;100.00;100957.22;5050780;28;20040;-63
2022/12/21 03:55:37;;;;;;;64.93;45.60;;;;;;;8.37;100.00;100934.31;5068280;28;20033;-63
2022/12/21 03:58:03;;;;;;;63.53;46.67;;;;;;;8.33;100.00;100943.38;5060105;28;20036;-64
2022/12/21 04:00:38;;;;;;;62.80;44.70;;;;;;;8.34;100.00;100948.56;5066435;28;20041;-62
2022/12/21 04:03:16;;;;;;;57.25;42.75;;;;;;;8.33;100.00;100943.38;5056759;28;20103;-64
2022/12/21 04:05:50;;;;;;;58.60;42.33;;;;;;;8.28;100.00;100932.16;5058519;28;20017;-64
2022/12/21 04:08:16;;;;;;;58.03;42.70;;;;;;;8.25;100.00;100935.81;5070001;28;20078;-62
2022/12/21 04:10:41;;;;;;;53.15;41.38;;;;;;;8.25;100.00;100938.47;5052822;28;20399;-62
2022/12/21 04:13:07;;;;;;;49.47;38.30;;;;;;;8.21;100.00;100931.63;5064473;28;20021;-64
2022/12/21 04:19:57;;;;;;;46.92;34.92;;;;;;;8.18;100.00;100924.69;5069065;28;20163;-64
2022/12/21 04:21:03;;;;;;;46.13;34.42;;;;;;;8.19;100.00;100938.78;5069023;28;20047;-64
2022/12/21 04:28:57;;;;;;;42.45;31.17;;;;;;;8.12;100.00;100942.69;5055977;28;20056;-64
2022/12/21 04:31:22;;;;;;;43.15;30.52;;;;;;;8.10;100.00;100936.59;5063631;28;20029;-65
2022/12/21 04:33:48;;;;;;;42.03;30.33;;;;;;;8.11;100.00;100939.16;5014304;28;20384;-65
2022/12/21 04:38:58;;;;;;;42.30;26.95;;;;;;;8.03;100.00;100924.59;5061654;28;20095;-65
2022/12/21 04:41:23;;;;;;;41.65;28.13;;;;;;;8.01;100.00;100929.13;5050700;28;20036;-64
2022/12/21 04:43:48;;;;;;;39.08;28.33;;;;;;;8.00;100.00;100911.50;5066019;28;20036;-65
2022/12/21 04:46:18;;;;;;;36.28;27.83;;;;;;;7.99;100.00;100909.81;5051167;28;20098;-64
2022/12/21 04:48:44;;;;;;;37.03;27.48;;;;;;;8.01;100.00;100915.91;5050738;28;20484;-65
2022/12/21 04:51:22;;;;;;;38.13;28.52;;;;;;;8.04;100.00;100927.19;5051125;28;20472;-65
2022/12/21 04:53:48;;;;;;;36.42;26.75;;;;;;;8.00;100.00;100925.63;5050255;28;20473;-65
2022/12/21 04:56:14;;;;;;;39.75;27.63;;;;;;;8.02;100.00;100912.31;5033206;28;20028;-65
2022/12/21 04:58:40;;;;;;;36.20;27.30;;;;;;;8.04;100.00;100913.09;5050852;28;20408;-65
2022/12/21 05:01:11;;;;;;;33.25;25.60;;;;;;;7.97;100.00;100929.28;5050156;28;20028;-65
2022/12/21 05:03:37;;;;;;;43.88;28.23;;;;;;;8.00;100.00;100922.09;5051090;28;20059;-65
2022/12/21 05:06:03;;;;;;;33.45;26.05;;;;;;;7.95;100.00;100917.06;5032781;28;20029;-64
2022/12/21 05:08:29;;;;;;;36.88;25.83;;;;;;;7.98;100.00;100927.50;5049016;28;20132;-65
2022/12/21 05:10:54;;;;;;;39.95;26.98;;;;;;;7.96;100.00;100927.56;5049933;28;20036;-65
2022/12/21 05:13:20;;;;;;;35.13;25.02;;;;;;;7.96;100.00;100932.00;5050904;28;20032;-64
2022/12/21 05:15:45;;;;;;;35.75;25.85;;;;;;;7.92;100.00;100925.16;5049869;28;20021;-65
2022/12/21 05:18:11;;;;;;;34.70;26.45;;;;;;;7.90;100.00;100925.22;5032948;28;20044;-65
2022/12/21 05:20:36;;;;;;;35.83;27.67;;;;;;;7.89;100.00;100926.16;5032911;28;20144;-65
2022/12/21 05:23:01;;;;;;;35.80;26.13;;;;;;;7.90;100.00;100922.59;5050187;28;20482;-65
2022/12/21 05:25:27;;;;;;;34.28;24.92;;;;;;;7.86;100.00;100921.03;5052752;28;20154;-65
2022/12/21 05:27:55;;;;;;;34.42;25.10;;;;;;;7.86;100.00;100918.38;5052922;28;20024;-65
2022/12/21 05:30:21;;;;;;;34.30;24.98;;;;;;;7.87;100.00;100912.16;5053413;28;20045;-65
2022/12/21 05:32:48;;;;;;;30.95;24.88;;;;;;;7.90;100.00;100916.44;5052975;28;20031;-65
2022/12/21 05:35:15;;;;;;;33.05;25.65;;;;;;;7.89;100.00;100917.38;5053089;28;20033;-65
2022/12/21 05:37:43;;;;;;;32.53;23.90;;;;;;;7.87;100.00;100920.09;5053089;28;20044;-65
2022/12/21 05:40:08;;;;;;;34.03;24.40;;;;;;;7.84;100.00;100924.69;5052433;28;20048;-65
2022/12/21 05:42:35;;;;;;;27.20;22.58;;;;;;;7.84;100.00;100916.75;5053005;28;20040;-65
2022/12/21 05:45:00;;;;;;;31.55;22.90;;;;;;;7.79;100.00;100918.75;5053510;28;20025;-65
2022/12/21 05:47:26;;;;;;;34.25;23.85;;;;;;;7.81;100.00;100922.19;5054035;28;20067;-65
2022/12/21 05:49:51;;;;;;;30.73;22.33;;;;;;;7.79;100.00;100911.66;5052620;28;20044;-65
2022/12/21 05:52:17;;;;;;;29.73;21.73;;;;;;;7.79;100.00;100924.06;5052918;28;20032;-65
2022/12/21 05:54:42;;;;;;;29.20;21.95;;;;;;;7.76;100.00;100913.63;5053455;28;20091;-65
2022/12/21 05:57:08;;;;;;;28.27;19.80;;;;;;;7.76;100.00;100909.19;5034298;28;20037;-65
2022/12/21 05:59:38;;;;;;;27.73;19.50;;;;;;;7.72;100.00;100910.28;5066128;28;20036;-65
2022/12/21 06:02:05;;;;;;;26.27;18.05;;;;;;;7.73;100.00;100912.88;5057666;28;20117;-65
2022/12/21 06:04:31;;;;;;;28.15;18.77;;;;;;;7.69;100.00;100907.78;5057355;28;20029;-65
2022/12/21 06:06:56;;;;;;;24.40;18.30;;;;;;;7.69;100.00;100899.84;5052619;28;20036;-65
2022/12/21 06:09:23;;;;;;;26.88;17.52;;;;;;;7.68;100.00;100903.44;5031278;28;20065;-65
2022/12/21 06:11:48;;;;;;;22.27;17.08;;;;;;;7.64;100.00;100902.72;5036288;28;20029;-65
2022/12/21 06:14:16;;;;;;;24.90;17.02;;;;;;;7.55;100.00;100894.38;5051653;28;20443;-65
2022/12/21 06:16:42;;;;;;;27.20;16.70;;;;;;;7.63;100.00;100902.81;5052408;28;20116;-65
2022/12/21 06:19:08;;;;;;;22.98;16.95;;;;;;;7.64;100.00;100901.84;5052166;28;20166;-64
2022/12/21 06:21:35;;;;;;;22.85;16.75;;;;;;;7.58;100.00;100905.66;5035672;28;20476;-65
2022/12/21 06:24:01;;;;;;;24.25;16.52;;;;;;;7.60;100.00;100906.44;5052583;28;20115;-65
2022/12/21 06:26:27;;;;;;;21.48;15.55;;;;;;;7.61;100.00;100912.59;5051787;28;20183;-65
2022/12/21 06:28:53;;;;;;;22.55;14.82;;;;;;;7.61;100.00;100912.59;5035017;28;20044;-64
2022/12/21 06:31:20;;;;;;;20.85;13.68;;;;;;;7.58;100.00;100913.59;5066671;28;20029;-64
2022/12/21 06:33:46;;;;;;;18.25;12.82;;;;;;;7.56;100.00;100909.31;5051977;28;20032;-64
2022/12/21 06:36:12;;;;;;;16.30;12.90;;;;;;;7.54;100.00;100903.25;5051983;28;20032;-64
2022/12/21 06:38:38;;;;;;;23.10;13.00;;;;;;;7.54;100.00;100908.56;5051996;28;20558;-64
2022/12/21 06:41:15;;;;;;;20.35;13.35;;;;;;;7.55;100.00;100908.47;5052324;28;20032;-65
2022/12/21 06:43:42;;;;;;;22.90;12.73;;;;;;;7.53;100.00;100907.69;5052866;28;20036;-64
2022/12/21 06:46:12;;;;;;;17.23;11.98;;;;;;;7.49;100.00;100895.53;5052852;28;20024;-65
2022/12/21 06:48:41;;;;;;;19.17;12.30;;;;;;;7.49;100.00;100903.47;5052254;28;20063;-64
2022/12/21 06:51:18;;;;;;;16.33;11.90;;;;;;;7.52;100.00;100913.91;5052870;28;20079;-65
2022/12/21 06:53:48;;;;;;;20.55;11.30;;;;;;;7.49;100.00;100908.78;5052738;28;20054;-65
2022/12/21 06:56:22;;;;;;;18.13;12.18;;;;;;;7.49;100.00;100909.63;5051672;28;20036;-64
2022/12/21 06:58:49;;;;;;;21.98;12.38;;;;;;;7.44;100.00;100919.59;5052545;28;20032;-64
2022/12/21 07:01:16;;;;;;;19.08;11.43;;;;;;;7.41;100.00;100927.69;5052973;28;20515;-65
2022/12/21 07:03:42;;;;;;;16.73;10.98;;;;;;;7.46;100.00;100932.72;5052718;28;20067;-65
2022/12/21 07:06:09;;;;;;;18.52;12.15;;;;;;;7.46;100.00;100930.09;5051364;28;20479;-64
2022/12/21 07:08:35;;;;;;;20.77;10.50;;;;;;;7.42;100.00;100928.53;5051537;28;20128;-64
2022/12/21 07:11:04;;;;;;;18.02;10.10;;;;;;;7.36;100.00;100916.47;5050592;28;20057;-65
2022/12/21 07:13:31;;;;;;;19.70;11.05;;;;;;;7.39;100.00;100921.59;5052330;28;20075;-64
2022/12/21 07:15:57;;;;;;;19.58;12.13;;;;;;;7.34;100.00;100913.03;5053083;28;20043;-64
2022/12/21 07:18:23;;;;;;;16.45;10.98;;;;;;;7.36;100.00;100921.75;5050795;28;20033;-65
2022/12/21 07:21:05;;;;;;;17.40;11.27;;;;;;;7.30;100.00;100931.78;5051569;28;20041;-65
2022/12/21 07:23:32;;;;;;;19.60;10.98;;;;;;;7.33;100.00;100931.63;5048547;28;20479;-65
2022/12/21 07:25:57;;;;;;;17.90;10.80;;;;;;;7.33;100.00;100931.63;5051073;28;20017;-65
2022/12/21 07:28:26;;;;;;;20.65;11.65;;;;;;;7.36;100.00;100934.13;5034184;28;20365;-65
2022/12/21 07:31:12;;;;;;;21.30;11.15;;;;;;;7.33;100.00;100937.78;5051638;28;20060;-64
2022/12/21 07:33:40;;;;;;;18.48;11.68;;;;;;;7.30;100.00;100940.56;5060076;28;20040;-64
2022/12/21 07:36:08;;;;;;;18.60;10.77;;;;;;;7.28;100.00;100937.13;5048106;28;20016;-65
2022/12/21 07:38:35;;;;;;;17.60;10.55;;;;;;;7.31;100.00;100946.72;5050732;28;20024;-65
2022/12/21 07:41:03;;;;;;;20.23;10.13;;;;;;;7.26;100.00;100961.03;5051472;28;20025;-64
2022/12/21 07:43:30;;;;;;;21.52;11.18;;;;;;;7.30;100.00;100968.81;5051444;28;20033;-65
2022/12/21 07:45:55;;;;;;;18.13;11.02;;;;;;;7.22;100.00;100962.09;5051682;28;20017;-65
2022/12/21 07:48:23;;;;;;;16.10;11.00;;;;;;;7.23;100.00;100962.94;5050455;28;20553;-64
2022/12/21 07:50:50;;;;;;;17.80;12.20;;;;;;;7.23;100.00;100981.44;5048696;28;20029;-63
2022/12/21 07:53:16;;;;;;;19.55;11.85;;;;;;;7.23;100.00;100986.75;5047219;28;20025;-63
2022/12/21 07:55:42;;;;;;;20.58;11.25;;;;;;;7.21;100.00;100992.13;5082006;28;20029;-63
2022/12/21 07:58:08;;;;;;;20.73;11.23;;;;;;;7.20;100.00;100978.94;5062784;28;20034;-64
2022/12/21 08:00:37;;;;;;;19.73;12.00;;;;;;;7.16;100.00;100975.59;5051886;28;20115;-64
2022/12/21 08:03:03;;;;;;;17.85;11.00;;;;;;;7.21;100.00;100986.84;5034665;28;20030;-64
2022/12/21 08:05:28;;;;;;;17.33;11.10;;;;;;;7.26;100.00;100994.53;5046101;28;20029;-64
2022/12/21 08:07:54;;;;;;;19.45;11.93;;;;;;;7.24;100.00;100988.47;5048641;28;20041;-63
2022/12/21 08:10:22;;;;;;;23.15;12.23;;;;;;;7.25;100.00;100971.66;5050243;28;20403;-64
2022/12/21 08:12:50;;;;;;;17.15;12.00;;;;;;;7.21;100.00;100968.31;5051245;28;20028;-63
2022/12/21 08:15:16;;;;;;;18.23;12.40;;;;;;;7.20;100.00;100958.66;5050404;28;20074;-63
2022/12/21 08:17:42;;;;;;;19.25;12.68;;;;;;;7.20;100.00;100963.94;5051829;28;20040;-64
2022/12/21 08:20:11;;;;;;;24.33;13.70;;;;;;;7.24;100.00;100976.09;5030280;28;20033;-64
2022/12/21 08:22:38;;;;;;;21.77;13.27;;;;;;;7.23;100.00;100984.94;5039665;28;20045;-64
2022/12/21 08:25:04;;;;;;;24.27;14.93;;;;;;;7.26;100.00;100994.53;5050669;28;20107;-63
2022/12/21 08:27:29;;;;;;;23.25;14.07;;;;;;;7.27;100.00;100988.34;5051240;28;20451;-64
2022/12/21 08:29:56;;;;;;;20.73;14.38;;;;;;;7.26;100.00;100979.56;5051213;28;20096;-63
2022/12/21 08:32:24;;;;;;;22.83;14.52;;;;;;;7.29;100.00;100989.09;5033000;28;20480;-64
2022/12/21 08:34:50;;;;;;;24.50;15.63;;;;;;;7.30;100.00;100985.53;5048692;28;20029;-64
2022/12/21 08:37:15;;;;;;;23.92;16.02;;;;;;;7.34;100.00;100984.47;5059572;28;20389;-64
2022/12/21 08:39:43;;;;;;;27.63;17.63;;;;;;;7.38;100.00;100986.03;5025556;28;20485;-64
2022/12/21 08:42:13;;;;;;;28.83;16.23;;;;;;;7.40;100.00;100981.50;5050478;28;20029;-64
2022/12/21 08:44:39;;;;;;;29.45;15.98;;;;;;;7.40;100.00;100978.88;5053543;28;20036;-64
2022/12/21 08:47:06;;;;;;;23.27;15.80;;;;;;;7.45;100.00;100989.25;5069929;28;20024;-64
2022/12/21 08:49:34;;;;;;;30.83;17.67;;;;;;;7.47;100.00;100984.72;5044684;28;20424;-64
2022/12/21 08:52:00;;;;;;;31.40;16.60;;;;;;;7.48;100.00;100995.25;5034970;28;20029;-64
2022/12/21 08:54:26;;;;;;;29.17;19.05;;;;;;;7.48;100.00;100997.91;5049459;28;20842;-64
2022/12/21 08:56:52;;;;;;;34.70;19.52;;;;;;;7.49;100.00;100986.38;5048877;28;20021;-64
2022/12/21 08:59:17;;;;;;;33.47;19.67;;;;;;;7.48;100.00;100992.59;5051630;28;20383;-64
2022/12/21 09:01:43;;;;;;;33.13;20.65;;;;;;;7.49;100.00;100999.59;5054583;28;20029;-64
2022/12/21 09:04:08;;;;;;;30.40;21.25;;;;;;;7.54;100.00;100998.53;5052391;28;20480;-64
2022/12/21 09:06:34;;;;;;;36.17;22.70;;;;;;;7.54;100.00;100995.88;5036931;28;20071;-65
2022/12/21 09:08:59;;;;;;;34.97;22.95;;;;;;;7.53;100.00;100981.81;5053006;28;20117;-65
2022/12/21 09:11:24;;;;;;;35.85;23.15;;;;;;;7.56;100.00;100991.34;5044865;28;20415;-65
2022/12/21 09:13:53;;;;;;;38.30;23.40;;;;;;;7.55;100.00;100982.56;5052384;28;20028;-64
2022/12/21 09:16:23;;;;;;;37.55;25.20;;;;;;;7.58;100.00;100981.56;5037040;28;20032;-64
2022/12/21 09:18:50;;;;;;;39.78;23.75;;;;;;;7.62;100.00;100980.50;5067646;28;20029;-64
2022/12/21 09:21:17;;;;;;;42.47;25.30;;;;;;;7.62;100.00;100968.13;5066085;28;20398;-64
2022/12/21 09:23:43;;;;;;;39.35;23.33;;;;;;;7.68;100.00;100981.06;5071907;28;20024;-64
2022/12/21 09:26:12;;;;;;;36.17;24.13;;;;;;;7.75;100.00;100978.97;5052898;28;20032;-65
2022/12/21 09:28:38;;;;;;;36.75;21.45;;;;;;;7.77;100.00;100977.09;5073072;28;20144;-64
2022/12/21 09:31:19;;;;;;;42.20;24.25;;;;;;;7.82;100.00;100976.84;5073242;28;20103;-64
2022/12/21 09:33:48;;;;;;;38.60;23.98;;;;;;;7.84;100.00;100980.28;5061691;28;20028;-64
2022/12/21 09:36:16;;;;;;;44.05;23.50;;;;;;;7.90;100.00;100987.94;5042246;28;20538;-65
2022/12/21 09:38:42;;;;;;;37.38;22.15;;;;;;;7.97;100.00;100984.91;5057271;28;20037;-64
2022/12/21 09:41:45;;;;;;;35.33;21.48;;;;;;;8.05;100.00;100991.59;5073664;28;20046;-64
2022/12/21 09:44:37;;;;;;;32.63;21.25;;;;;;;8.09;100.00;101001.09;5068025;28;20032;-65
2022/12/21 09:47:05;;;;;;;37.88;21.65;;;;;;;8.07;100.00;101006.50;5034222;28;20429;-65
2022/12/21 09:49:39;;;;;;;37.92;21.38;;;;;;;8.11;100.00;101009.84;5049904;28;20037;-65
2022/12/21 09:52:14;;;;;;;38.05;22.20;;;;;;;8.06;100.00;101015.38;5059145;28;20036;-64
2022/12/21 09:54:47;;;;;;;28.77;20.23;;;;;;;7.96;100.00;101003.50;5051858;28;20387;-64
2022/12/21 09:57:13;;;;;;;36.67;19.88;;;;;;;7.99;100.00;100999.84;5054119;28;20087;-64
2022/12/21 09:59:41;;;;;;;33.78;21.13;;;;;;;8.00;100.00;101002.44;5052683;28;20024;-61
2022/12/21 10:02:32;;;;;;;37.45;20.13;;;;;;;8.07;100.00;101011.78;5034223;28;20519;-64
2022/12/21 10:05:17;;;;;;;35.67;20.50;;;;;;;8.08;100.00;101005.53;5044683;28;20127;-64
2022/12/21 10:08:30;;;;;;;32.83;20.20;;;;;;;8.15;100.00;101006.97;5051883;28;20032;-64
2022/12/21 10:11:11;;;;;;;32.28;20.08;;;;;;;8.08;100.00;101012.63;5010404;28;20401;-65
2022/12/21 10:14:11;;;;;;;32.47;19.73;;;;;;;8.06;100.00;101011.84;5047217;28;20037;-64
2022/12/21 10:16:36;;;;;;;;;;;;;;;8.19;100.00;101007.66;5023785;28;20542;-64
2022/12/21 10:19:15;;;;;;;35.00;20.23;;;;;;;8.08;100.00;101008.19;5046487;28;20041;-65
2022/12/21 10:21:56;;;;;;;42.75;20.02;;;;;;;8.09;100.00;101017.88;5052465;28;20068;-65
2022/12/21 10:24:46;;;;;;;36.75;20.30;;;;;;;8.07;100.00;101018.88;5048575;28;20029;-65
2022/12/21 10:27:26;;;;;;;35.72;20.20;;;;;;;8.06;100.00;101010.09;5057030;28;20428;-64
2022/12/21 10:29:56;;;;;;;29.67;19.05;;;;;;;8.02;100.00;101012.94;5061720;28;20025;-65
2022/12/21 10:32:29;;;;;;;34.08;19.83;;;;;;;8.05;100.00;101008.34;5053797;28;20052;-64
2022/12/21 10:34:54;;;;;;;33.63;18.63;;;;;;;8.09;100.00;101006.41;5057936;28;20380;-64
2022/12/21 10:37:21;;;;;;;33.08;19.80;;;;;;;8.20;100.00;101004.06;5050285;28;20057;-64
2022/12/21 10:39:54;;;;;;;30.58;19.02;;;;;;;8.25;100.00;101002.06;5052263;28;20021;-64
2022/12/21 10:42:49;;;;;;;30.23;18.33;;;;;;;8.28;100.00;101001.91;5052855;28;20037;-65
2022/12/21 10:45:16;;;;;;;32.83;17.33;;;;;;;8.24;100.00;100986.25;5050527;28;20029;-64
2022/12/21 10:47:44;;;;;;;27.10;17.75;;;;;;;8.28;100.00;100991.28;5053163;28;20032;-64
2022/12/21 10:50:14;;;;;;;32.20;17.98;;;;;;;8.29;100.00;100982.41;5052415;28;20515;-64
2022/12/21 10:52:47;;;;;;;29.45;17.58;;;;;;;8.24;100.00;100978.31;5051312;28;20029;-64
2022/12/21 10:55:18;;;;;;;27.77;17.63;;;;;;;8.25;100.00;100977.34;5052509;28;20020;-64
2022/12/21 10:57:49;;;;;;;27.42;16.70;;;;;;;8.27;100.00;100973.69;5052994;28;20021;-64
2022/12/21 11:00:26;;;;;;;31.98;19.00;;;;;;;8.25;100.00;100975.56;5052533;28;20025;-65
2022/12/21 11:02:57;;;;;;;32.30;17.92;;;;;;;8.30;100.00;100973.53;5032797;28;20554;-65
2022/12/21 11:05:29;;;;;;;38.05;18.65;;;;;;;8.30;100.00;100964.72;5032605;28;20021;-65
2022/12/21 11:08:18;;;;;;;30.02;19.02;;;;;;;8.33;100.00;100959.28;5031084;28;20044;-64
2022/12/21 11:10:49;;;;;;;31.75;18.73;;;;;;;8.29;100.00;100961.19;5033773;28;20055;-64
2022/12/21 11:13:16;;;;;;;27.98;18.60;;;;;;;8.32;100.00;100962.84;5031563;28;20033;-65
2022/12/21 11:16:12;;;;;;;35.67;18.08;;;;;;;8.35;100.00;100960.03;5031576;28;20056;-64
2022/12/21 11:18:46;;;;;;;34.78;19.00;;;;;;;8.30;100.00;100959.44;5032416;28;20029;-64
2022/12/21 11:21:22;;;;;;;29.83;18.90;;;;;;;8.28;100.00;100956.84;5030905;28;20088;-64
2022/12/21 11:23:57;;;;;;;30.88;18.92;;;;;;;8.29;100.00;100973.59;5031948;28;20037;-64
2022/12/21 11:26:35;;;;;;;34.20;18.13;;;;;;;8.30;100.00;100970.03;5047701;28;20059;-64
2022/12/21 11:29:06;;;;;;;30.83;18.90;;;;;;;8.24;100.00;100952.66;5032294;28;20029;-64
2022/12/21 11:31:35;;;;;;;35.17;18.40;;;;;;;8.26;100.00;100968.47;5041390;28;20019;-64
2022/12/21 11:34:04;;;;;;;27.85;18.05;;;;;;;8.27;100.00;100971.03;5050612;28;20033;-65
2022/12/21 11:36:30;;;;;;;30.45;18.83;;;;;;;8.29;100.00;100963.00;5051691;28;20032;-64